createdAt,value
2023-01-25T00:03:34.287Z,0.27
2023-01-25T00:08:30.803Z,0.11
2023-01-25T00:13:27.320Z,0.04
2023-01-25T00:18:23.792Z,0.06
2023-01-25T00:23:20.202Z,0.15
2023-01-25T00:28:16.660Z,0.23
2023-01-25T00:33:15.756Z,0.03
2023-01-25T00:38:28.610Z,-0.04
2023-01-25T00:43:25.225Z,0.00
2023-01-25T00:48:21.649Z,0.03
2023-01-25T00:53:18.050Z,-0.12
2023-01-25T00:58:14.431Z,-0.39
2023-01-25T01:03:10.854Z,-0.39
2023-01-25T01:08:07.285Z,-0.37
2023-01-25T01:13:03.829Z,-0.43
2023-01-25T01:18:00.200Z,-0.28
2023-01-25T01:22:56.779Z,-0.24
2023-01-25T01:27:53.145Z,-0.27
2023-01-25T01:32:51.465Z,-0.31
2023-01-25T01:37:47.957Z,-0.37
2023-01-25T01:43:01.238Z,-0.32
2023-01-25T01:47:57.610Z,-0.30
2023-01-25T01:52:54.162Z,-0.35
2023-01-25T01:57:56.019Z,-0.41
2023-01-25T02:02:54.360Z,-0.47
2023-01-25T02:07:54.755Z,-0.70
2023-01-25T02:12:54.133Z,-0.55
2023-01-25T02:17:51.426Z,-0.55
2023-01-25T02:23:05.290Z,-0.51
2023-01-25T02:28:22.476Z,-0.47
2023-01-25T02:33:18.962Z,-0.51
2023-01-25T02:38:18.173Z,-0.57
2023-01-25T02:43:16.188Z,-0.54
2023-01-25T02:48:12.580Z,-0.71
2023-01-25T02:53:09.113Z,-0.58
2023-01-25T02:58:05.503Z,-0.59
2023-01-25T03:03:01.966Z,-0.80
2023-01-25T03:07:58.442Z,-0.85
2023-01-25T03:12:54.826Z,-0.83
2023-01-25T03:17:51.311Z,-0.77
2023-01-25T03:22:47.804Z,-0.78
2023-01-25T03:27:44.216Z,-0.96
2023-01-25T03:32:40.660Z,-0.74
2023-01-25T03:37:37.102Z,-0.89
2023-01-25T03:42:33.478Z,-0.92
2023-01-25T03:47:29.920Z,-0.87
2023-01-25T03:52:29.969Z,-0.96
2023-01-25T03:57:26.406Z,-1.03
2023-01-25T04:02:22.894Z,-1.39
2023-01-25T04:07:20.011Z,-1.04
2023-01-25T04:12:16.429Z,-1.21
2023-01-25T04:17:14.002Z,-1.17
2023-01-25T04:22:10.526Z,-1.11
2023-01-25T04:27:07.066Z,-1.16
2023-01-25T04:32:03.645Z,-1.35
2023-01-25T04:37:00.115Z,-1.33
2023-01-25T04:41:56.511Z,-1.13
2023-01-25T04:46:52.932Z,-1.08
2023-01-25T04:51:49.384Z,-0.94
2023-01-25T04:56:45.823Z,-1.19
2023-01-25T05:01:42.252Z,-1.08
2023-01-25T05:06:38.636Z,-1.29
2023-01-25T05:11:35.087Z,-1.24
2023-01-25T05:16:31.642Z,-1.19
2023-01-25T05:21:46.811Z,-1.26
2023-01-25T05:27:01.593Z,-1.17
2023-01-25T05:31:59.213Z,-1.20
2023-01-25T05:36:56.345Z,-1.25
2023-01-25T05:41:53.012Z,-1.22
2023-01-25T05:46:50.283Z,-1.08
2023-01-25T05:51:47.252Z,-1.07
2023-01-25T05:56:44.220Z,-1.20
2023-01-25T06:01:40.698Z,-1.22
2023-01-25T06:06:37.117Z,-1.37
2023-01-25T06:11:33.608Z,-1.26
2023-01-25T06:16:30.040Z,-1.10
2023-01-25T06:21:26.484Z,-1.16
2023-01-25T06:26:22.931Z,-1.03
2023-01-25T06:31:19.445Z,-1.18
2023-01-25T06:36:18.545Z,-1.08
2023-01-25T06:41:15.532Z,-1.10
2023-01-25T06:46:12.620Z,-1.13
2023-01-25T06:51:11.229Z,-1.12
2023-01-25T06:56:11.814Z,-0.99
2023-01-25T07:01:21.685Z,-1.14
2023-01-25T07:06:19.159Z,-1.14
2023-01-25T07:11:19.151Z,-0.99
2023-01-25T07:16:19.233Z,-1.13
2023-01-25T07:21:21.761Z,-1.06
2023-01-25T07:26:25.733Z,-1.14
2023-01-25T07:31:22.554Z,-1.18
2023-01-25T07:36:19.261Z,-1.31
2023-01-25T07:41:16.432Z,-1.31
2023-01-25T07:46:13.984Z,-1.17
2023-01-25T07:51:22.484Z,-1.22
2023-01-25T07:56:20.061Z,-1.25
2023-01-25T08:01:19.343Z,-1.33
2023-01-25T08:06:16.583Z,-1.20
2023-01-25T08:11:18.538Z,-1.28
2023-01-25T08:16:17.072Z,-1.20
2023-01-25T08:21:13.715Z,-1.15
2023-01-25T08:26:12.552Z,-1.27
2023-01-25T08:31:21.276Z,-1.19
2023-01-25T08:36:19.075Z,-1.21
2023-01-25T08:41:18.317Z,-1.06
2023-01-25T08:46:16.327Z,-1.25
2023-01-25T08:51:14.797Z,-1.12
2023-01-25T08:56:14.188Z,-1.12
2023-01-25T09:01:12.716Z,-1.28
2023-01-25T09:06:10.048Z,-1.23
2023-01-25T09:11:09.212Z,-1.01
2023-01-25T09:16:08.234Z,-1.23
2023-01-25T09:21:13.012Z,-1.18
2023-01-25T09:26:10.332Z,-1.18
2023-01-25T09:31:21.105Z,-1.08
2023-01-25T09:36:19.309Z,-1.03
2023-01-25T09:41:53.520Z,-1.01
2023-01-25T09:46:58.056Z,-1.12
2023-01-25T09:52:12.111Z,-1.14
2023-01-25T09:57:18.683Z,-1.02
2023-01-25T10:02:30.186Z,-1.22
2023-01-25T10:07:34.398Z,-1.29
2023-01-25T10:12:36.030Z,-1.18
2023-01-25T10:17:37.165Z,-1.17
2023-01-25T10:22:41.252Z,-1.19
2023-01-25T10:28:02.062Z,-1.13
2023-01-25T10:33:02.175Z,-1.15
2023-01-25T10:38:04.968Z,-1.15
2023-01-25T10:43:07.748Z,-1.01
2023-01-25T10:48:09.212Z,-1.14
2023-01-25T10:53:05.581Z,-1.19
2023-01-25T10:58:02.005Z,-1.11
2023-01-25T11:02:58.791Z,-1.38
2023-01-25T11:07:56.493Z,-1.14
2023-01-25T11:13:19.300Z,-1.00
2023-01-25T11:18:22.988Z,-0.99
2023-01-25T11:23:26.123Z,-1.08
2023-01-25T11:28:25.624Z,-1.31
2023-01-25T11:33:22.738Z,-1.45
2023-01-25T11:38:23.082Z,-1.29
2023-01-25T11:44:01.765Z,-1.31
2023-01-25T11:49:16.624Z,-1.15
2023-01-25T11:54:37.446Z,-1.32
2023-01-25T11:59:39.760Z,-1.18
2023-01-25T12:04:41.947Z,-1.18
2023-01-25T12:10:18.443Z,-1.03
2023-01-25T12:15:23.671Z,-1.08
2023-01-25T12:20:40.855Z,-1.13
2023-01-25T12:25:58.898Z,-1.15
2023-01-25T12:31:22.722Z,-0.99
2023-01-25T12:36:27.906Z,-1.09
2023-01-25T12:41:48.537Z,-1.18
2023-01-25T12:47:05.241Z,-1.17
2023-01-25T12:52:07.183Z,-1.18
2023-01-25T12:57:16.442Z,-1.20
2023-01-25T13:02:37.038Z,-1.17
2023-01-25T13:07:43.404Z,-1.21
2023-01-25T13:12:58.617Z,-1.38
2023-01-25T13:17:55.107Z,-1.28
2023-01-25T13:22:53.429Z,-1.20
2023-01-25T13:27:50.315Z,-1.24
2023-01-25T13:32:49.559Z,-1.22
2023-01-25T13:37:58.137Z,-1.15
2023-01-25T13:43:12.547Z,-0.95
2023-01-25T13:48:08.925Z,-1.13
2023-01-25T13:53:18.782Z,-1.23
2023-01-25T13:58:34.654Z,-1.12
2023-01-25T14:03:51.309Z,-1.17
2023-01-25T14:08:48.871Z,-1.13
2023-01-25T14:14:17.887Z,-1.18
2023-01-25T14:19:24.819Z,-1.23
2023-01-25T14:24:21.261Z,-1.06
2023-01-25T14:29:35.255Z,-1.26
2023-01-25T14:34:31.786Z,-1.34
2023-01-25T14:39:29.306Z,-1.26
2023-01-25T14:44:26.182Z,-1.30
2023-01-25T14:49:25.699Z,-1.43
2023-01-25T14:54:28.240Z,-1.34
2023-01-25T14:59:27.259Z,-1.15
2023-01-25T15:04:23.820Z,-1.32
2023-01-25T15:09:33.565Z,-1.41
2023-01-25T15:14:30.057Z,-1.50
2023-01-25T15:19:29.836Z,-1.60
2023-01-25T15:24:27.699Z,-1.57
2023-01-25T15:29:27.313Z,-1.42
2023-01-25T15:34:30.257Z,-1.62
2023-01-25T15:39:26.884Z,-1.56
2023-01-25T15:44:23.277Z,-1.61
2023-01-25T15:49:31.498Z,-1.65
2023-01-25T15:54:27.894Z,-1.69
2023-01-25T15:59:25.188Z,-1.84
2023-01-25T16:04:21.674Z,-1.65
2023-01-25T16:09:30.775Z,-1.83
2023-01-25T16:14:30.174Z,-1.88
2023-01-25T16:19:26.714Z,-1.93
2023-01-25T16:24:23.584Z,-1.84
2023-01-25T16:29:21.497Z,-1.87
2023-01-25T16:34:17.882Z,-1.71
2023-01-25T16:39:22.450Z,-1.79
2023-01-25T16:44:19.126Z,-1.71
2023-01-25T16:49:21.418Z,-1.80
2023-01-25T16:54:19.759Z,-1.82
2023-01-25T16:59:17.292Z,-1.91
2023-01-25T17:04:13.891Z,-1.94
2023-01-25T17:09:22.798Z,-1.81
2023-01-25T17:14:22.071Z,-1.78
2023-01-25T17:19:19.183Z,-1.79
2023-01-25T17:24:20.789Z,-1.94
2023-01-25T17:29:17.376Z,-1.91
2023-01-25T17:34:19.786Z,-2.09
2023-01-25T17:39:19.497Z,-2.29
2023-01-25T17:44:21.289Z,-2.13
2023-01-25T17:49:20.187Z,-2.19
2023-01-25T17:54:16.780Z,-2.29
2023-01-25T17:59:13.240Z,-2.25
2023-01-25T18:04:10.029Z,-2.09
2023-01-25T18:09:06.949Z,-2.14
2023-01-25T18:14:09.278Z,-2.17
2023-01-25T18:19:05.985Z,-2.16
2023-01-25T18:24:23.091Z,-2.23
2023-01-25T18:29:41.913Z,-2.35
2023-01-25T18:34:38.352Z,-2.11
2023-01-25T18:39:34.783Z,-2.06
2023-01-25T18:44:31.259Z,-2.09
2023-01-25T18:49:27.700Z,-2.30
2023-01-25T18:54:24.181Z,-2.32
2023-01-25T18:59:20.595Z,-2.26
2023-01-25T19:04:17.030Z,-2.29
2023-01-25T19:09:13.474Z,-2.24
2023-01-25T19:14:09.952Z,-2.21
2023-01-25T19:19:06.372Z,-2.04
2023-01-25T19:24:02.883Z,-2.05
2023-01-25T19:28:59.320Z,-2.00
2023-01-25T19:34:00.317Z,-1.98
2023-01-25T19:38:58.122Z,-2.10
2023-01-25T19:43:59.583Z,-2.02
2023-01-25T19:48:56.823Z,-1.95
2023-01-25T19:53:59.942Z,-1.96
2023-01-25T19:58:56.727Z,-1.82
2023-01-25T20:03:55.675Z,-1.78
2023-01-25T20:08:52.910Z,-1.71
2023-01-25T20:13:52.163Z,-1.69
2023-01-25T20:18:49.614Z,-1.80
2023-01-25T20:23:48.387Z,-1.85
2023-01-25T20:28:47.152Z,-1.83
2023-01-25T20:33:43.533Z,-1.84
2023-01-25T20:38:40.092Z,-1.92
2023-01-25T20:43:36.561Z,-1.81
2023-01-25T20:48:36.312Z,-1.78
2023-01-25T20:53:33.685Z,-1.73
2023-01-25T20:58:30.200Z,-1.73
2023-01-25T21:03:29.123Z,-1.72
2023-01-25T21:08:27.746Z,-1.67
2023-01-25T21:13:25.284Z,-1.73
2023-01-25T21:18:21.713Z,-1.81
2023-01-25T21:23:18.103Z,-1.84
2023-01-25T21:28:14.477Z,-1.70
2023-01-25T21:33:10.969Z,-1.67
2023-01-25T21:38:07.405Z,-1.70
2023-01-25T21:43:04.018Z,-1.68
2023-01-25T21:48:00.489Z,-1.74
2023-01-25T21:52:57.001Z,-1.69
2023-01-25T21:57:53.423Z,-1.75
2023-01-25T22:02:51.628Z,-1.80
2023-01-25T22:07:48.076Z,-1.77
2023-01-25T22:12:45.437Z,-1.70
2023-01-25T22:17:41.889Z,-1.69
2023-01-25T22:22:38.301Z,-1.74
2023-01-25T22:27:46.037Z,-1.62
2023-01-25T22:32:42.536Z,-1.71
2023-01-25T22:37:38.932Z,-1.75
2023-01-25T22:42:35.464Z,-1.78
2023-01-25T22:47:31.866Z,-1.78
2023-01-25T22:52:28.314Z,-1.75
2023-01-25T22:57:24.697Z,-1.75
2023-01-25T23:02:21.443Z,-1.70
2023-01-25T23:07:18.877Z,-1.68
2023-01-25T23:12:15.526Z,-1.72
2023-01-25T23:17:30.870Z,-1.75
2023-01-25T23:22:27.684Z,-1.77
2023-01-25T23:27:24.112Z,-1.77
2023-01-25T23:32:21.445Z,-1.79
2023-01-25T23:37:17.877Z,-1.80
2023-01-25T23:42:14.335Z,-1.88
2023-01-25T23:47:10.792Z,-1.81
2023-01-25T23:52:07.211Z,-1.76
2023-01-25T23:57:03.713Z,-1.78
